sensor_id;sensor_type;location;lat;lon;timestamp;temperature;humidity
15749;DHT22;7976;52.526;13.326;2023-12-04T00:01:57;-1.40;99.90
15749;DHT22;7976;52.526;13.326;2023-12-04T00:04:24;-1.40;99.90
15749;DHT22;7976;52.526;13.326;2023-12-04T00:06:52;-1.40;99.90
15749;DHT22;7976;52.526;13.326;2023-12-04T00:09:19;-1.50;99.90
15749;DHT22;7976;52.526;13.326;2023-12-04T00:11:46;-1.50;99.90
15749;DHT22;7976;52.526;13.326;2023-12-04T00:14:13;-1.50;99.90
15749;DHT22;7976;52.526;13.326;2023-12-04T00:16:40;-1.50;99.90
15749;DHT22;7976;52.526;13.326;2023-12-04T00:19:07;-1.50;99.90
15749;DHT22;7976;52.526;13.326;2023-12-04T00:21:33;-1.50;99.90
15749;DHT22;7976;52.526;13.326;2023-12-04T00:24:02;-1.50;99.90
15749;DHT22;7976;52.526;13.326;2023-12-04T00:26:30;-1.50;99.90
15749;DHT22;7976;52.526;13.326;2023-12-04T00:28:57;-1.50;99.90
15749;DHT22;7976;52.526;13.326;2023-12-04T00:31:24;-1.60;99.90
15749;DHT22;7976;52.526;13.326;2023-12-04T00:33:51;-1.60;99.90
15749;DHT22;7976;52.526;13.326;2023-12-04T00:36:18;-1.60;99.90
15749;DHT22;7976;52.526;13.326;2023-12-04T00:38:45;-1.70;99.90
15749;DHT22;7976;52.526;13.326;2023-12-04T00:41:14;-1.60;99.90
15749;DHT22;7976;52.526;13.326;2023-12-04T00:43:41;-1.60;99.90
15749;DHT22;7976;52.526;13.326;2023-12-04T00:46:08;-1.60;99.90
15749;DHT22;7976;52.526;13.326;2023-12-04T00:48:36;-1.70;99.90
15749;DHT22;7976;52.526;13.326;2023-12-04T00:51:03;-1.60;99.90
15749;DHT22;7976;52.526;13.326;2023-12-04T00:53:30;-1.60;99.90
15749;DHT22;7976;52.526;13.326;2023-12-04T00:55:57;-1.50;99.90
15749;DHT22;7976;52.526;13.326;2023-12-04T00:58:25;-1.50;99.90
15749;DHT22;7976;52.526;13.326;2023-12-04T01:00:52;-1.50;99.90
15749;DHT22;7976;52.526;13.326;2023-12-04T01:03:19;-1.50;99.90
15749;DHT22;7976;52.526;13.326;2023-12-04T01:05:45;-1.50;99.90
15749;DHT22;7976;52.526;13.326;2023-12-04T01:08:11;-1.50;99.90
15749;DHT22;7976;52.526;13.326;2023-12-04T01:10:38;-1.50;99.90
15749;DHT22;7976;52.526;13.326;2023-12-04T01:13:07;-1.50;99.90
15749;DHT22;7976;52.526;13.326;2023-12-04T01:15:35;-1.50;99.90
15749;DHT22;7976;52.526;13.326;2023-12-04T01:18:02;-1.50;99.90
15749;DHT22;7976;52.526;13.326;2023-12-04T01:20:29;-1.50;99.90
15749;DHT22;7976;52.526;13.326;2023-12-04T01:22:58;-1.60;99.90
15749;DHT22;7976;52.526;13.326;2023-12-04T01:25:25;-1.60;99.90
15749;DHT22;7976;52.526;13.326;2023-12-04T01:27:52;-1.60;99.90
15749;DHT22;7976;52.526;13.326;2023-12-04T01:30:19;-1.70;99.90
15749;DHT22;7976;52.526;13.326;2023-12-04T01:32:47;-1.70;99.90
15749;DHT22;7976;52.526;13.326;2023-12-04T01:35:14;-1.70;99.90
15749;DHT22;7976;52.526;13.326;2023-12-04T01:37:41;-1.70;99.90
15749;DHT22;7976;52.526;13.326;2023-12-04T01:40:08;-1.80;99.90
15749;DHT22;7976;52.526;13.326;2023-12-04T01:42:36;-1.80;99.90
15749;DHT22;7976;52.526;13.326;2023-12-04T01:45:03;-1.80;99.90
15749;DHT22;7976;52.526;13.326;2023-12-04T01:47:31;-1.80;99.90
15749;DHT22;7976;52.526;13.326;2023-12-04T01:49:59;-1.80;99.90
15749;DHT22;7976;52.526;13.326;2023-12-04T01:52:27;-1.80;99.90
15749;DHT22;7976;52.526;13.326;2023-12-04T01:54:54;-1.80;99.90
15749;DHT22;7976;52.526;13.326;2023-12-04T01:57:21;-1.80;99.90
15749;DHT22;7976;52.526;13.326;2023-12-04T01:59:48;-1.80;99.90
15749;DHT22;7976;52.526;13.326;2023-12-04T02:02:15;-1.80;99.90
15749;DHT22;7976;52.526;13.326;2023-12-04T02:04:42;-1.80;99.90
15749;DHT22;7976;52.526;13.326;2023-12-04T02:07:10;-1.80;99.90
15749;DHT22;7976;52.526;13.326;2023-12-04T02:09:37;-1.80;99.90
15749;DHT22;7976;52.526;13.326;2023-12-04T02:12:05;-1.80;99.90
15749;DHT22;7976;52.526;13.326;2023-12-04T02:14:32;-1.80;99.90
15749;DHT22;7976;52.526;13.326;2023-12-04T02:17:01;-1.80;99.90
15749;DHT22;7976;52.526;13.326;2023-12-04T02:19:32;-1.80;99.90
15749;DHT22;7976;52.526;13.326;2023-12-04T02:21:59;-1.80;99.90
15749;DHT22;7976;52.526;13.326;2023-12-04T02:24:27;-1.70;99.90
15749;DHT22;7976;52.526;13.326;2023-12-04T02:27:01;-1.70;99.90
15749;DHT22;7976;52.526;13.326;2023-12-04T02:29:39;-1.80;99.90
15749;DHT22;7976;52.526;13.326;2023-12-04T02:32:11;-1.70;99.90
15749;DHT22;7976;52.526;13.326;2023-12-04T02:34:42;-1.80;99.90
15749;DHT22;7976;52.526;13.326;2023-12-04T02:37:11;-1.80;99.90
15749;DHT22;7976;52.526;13.326;2023-12-04T02:39:42;-1.80;99.90
15749;DHT22;7976;52.526;13.326;2023-12-04T02:42:09;-1.80;99.90
15749;DHT22;7976;52.526;13.326;2023-12-04T02:44:37;-1.80;99.90
15749;DHT22;7976;52.526;13.326;2023-12-04T02:47:04;-1.80;99.90
15749;DHT22;7976;52.526;13.326;2023-12-04T02:49:31;-1.90;99.90
15749;DHT22;7976;52.526;13.326;2023-12-04T02:51:58;-1.90;99.90
15749;DHT22;7976;52.526;13.326;2023-12-04T02:54:25;-1.90;99.90
15749;DHT22;7976;52.526;13.326;2023-12-04T02:56:53;-1.90;99.90
15749;DHT22;7976;52.526;13.326;2023-12-04T02:59:20;-1.90;99.90
15749;DHT22;7976;52.526;13.326;2023-12-04T03:01:47;-1.90;99.90
15749;DHT22;7976;52.526;13.326;2023-12-04T03:04:14;-1.90;99.90
15749;DHT22;7976;52.526;13.326;2023-12-04T03:06:41;-1.90;99.90
15749;DHT22;7976;52.526;13.326;2023-12-04T03:09:08;-1.90;99.90
15749;DHT22;7976;52.526;13.326;2023-12-04T03:11:34;-1.90;99.90
15749;DHT22;7976;52.526;13.326;2023-12-04T03:14:03;-2.00;99.90
15749;DHT22;7976;52.526;13.326;2023-12-04T03:16:29;-1.90;99.90
15749;DHT22;7976;52.526;13.326;2023-12-04T03:18:56;-1.90;99.90
15749;DHT22;7976;52.526;13.326;2023-12-04T03:21:23;-1.90;99.90
15749;DHT22;7976;52.526;13.326;2023-12-04T03:23:50;-1.90;99.90
15749;DHT22;7976;52.526;13.326;2023-12-04T03:26:16;-2.00;99.90
15749;DHT22;7976;52.526;13.326;2023-12-04T03:28:43;-2.00;99.90
15749;DHT22;7976;52.526;13.326;2023-12-04T03:31:11;-2.00;99.90
15749;DHT22;7976;52.526;13.326;2023-12-04T03:33:38;-2.00;99.90
15749;DHT22;7976;52.526;13.326;2023-12-04T03:36:06;-2.00;99.90
15749;DHT22;7976;52.526;13.326;2023-12-04T03:38:34;-2.00;99.90
15749;DHT22;7976;52.526;13.326;2023-12-04T03:41:01;-2.00;99.90
15749;DHT22;7976;52.526;13.326;2023-12-04T03:43:27;-2.00;99.90
15749;DHT22;7976;52.526;13.326;2023-12-04T03:45:54;-2.10;99.90
15749;DHT22;7976;52.526;13.326;2023-12-04T03:48:22;-2.10;99.90
15749;DHT22;7976;52.526;13.326;2023-12-04T03:50:49;-2.10;99.90
15749;DHT22;7976;52.526;13.326;2023-12-04T03:53:17;-2.00;99.90
15749;DHT22;7976;52.526;13.326;2023-12-04T03:55:44;-2.00;99.90
15749;DHT22;7976;52.526;13.326;2023-12-04T03:58:10;-2.00;99.90
15749;DHT22;7976;52.526;13.326;2023-12-04T04:00:37;-1.90;99.90
15749;DHT22;7976;52.526;13.326;2023-12-04T04:03:06;-1.90;99.90
15749;DHT22;7976;52.526;13.326;2023-12-04T04:05:34;-1.90;99.90
15749;DHT22;7976;52.526;13.326;2023-12-04T04:08:02;-1.90;99.90
15749;DHT22;7976;52.526;13.326;2023-12-04T04:10:28;-1.90;99.90
15749;DHT22;7976;52.526;13.326;2023-12-04T04:12:55;-1.90;99.90
15749;DHT22;7976;52.526;13.326;2023-12-04T04:15:22;-1.90;99.90
15749;DHT22;7976;52.526;13.326;2023-12-04T04:17:49;-2.00;99.90
15749;DHT22;7976;52.526;13.326;2023-12-04T04:20:16;-2.00;99.90
15749;DHT22;7976;52.526;13.326;2023-12-04T04:22:44;-2.10;99.90
15749;DHT22;7976;52.526;13.326;2023-12-04T04:25:12;-2.10;99.90
15749;DHT22;7976;52.526;13.326;2023-12-04T04:27:39;-2.10;99.90
15749;DHT22;7976;52.526;13.326;2023-12-04T04:30:06;-2.10;99.90
15749;DHT22;7976;52.526;13.326;2023-12-04T04:32:34;-2.10;99.90
15749;DHT22;7976;52.526;13.326;2023-12-04T04:35:00;-2.10;99.90
15749;DHT22;7976;52.526;13.326;2023-12-04T04:37:28;-2.20;99.90
15749;DHT22;7976;52.526;13.326;2023-12-04T04:39:56;-2.20;99.90
15749;DHT22;7976;52.526;13.326;2023-12-04T04:42:23;-2.20;99.90
15749;DHT22;7976;52.526;13.326;2023-12-04T04:44:50;-2.20;99.90
15749;DHT22;7976;52.526;13.326;2023-12-04T04:47:17;-2.20;99.90
15749;DHT22;7976;52.526;13.326;2023-12-04T04:49:43;-2.20;99.90
15749;DHT22;7976;52.526;13.326;2023-12-04T04:52:10;-2.20;99.90
15749;DHT22;7976;52.526;13.326;2023-12-04T04:54:37;-2.20;99.90
15749;DHT22;7976;52.526;13.326;2023-12-04T04:57:06;-2.30;99.90
15749;DHT22;7976;52.526;13.326;2023-12-04T04:59:33;-2.20;99.90
15749;DHT22;7976;52.526;13.326;2023-12-04T05:02:00;-2.20;99.90
15749;DHT22;7976;52.526;13.326;2023-12-04T05:04:28;-2.20;99.90
15749;DHT22;7976;52.526;13.326;2023-12-04T05:06:55;-2.30;99.90
15749;DHT22;7976;52.526;13.326;2023-12-04T05:09:22;-2.20;99.90
15749;DHT22;7976;52.526;13.326;2023-12-04T05:11:49;-2.30;99.90
15749;DHT22;7976;52.526;13.326;2023-12-04T05:14:17;-2.30;99.90
15749;DHT22;7976;52.526;13.326;2023-12-04T05:16:44;-2.30;99.90
15749;DHT22;7976;52.526;13.326;2023-12-04T05:19:11;-2.30;99.90
15749;DHT22;7976;52.526;13.326;2023-12-04T05:21:38;-2.30;99.90
15749;DHT22;7976;52.526;13.326;2023-12-04T05:24:05;-2.20;99.90
15749;DHT22;7976;52.526;13.326;2023-12-04T05:26:32;-2.30;99.90
15749;DHT22;7976;52.526;13.326;2023-12-04T05:28:59;-2.30;99.90
15749;DHT22;7976;52.526;13.326;2023-12-04T05:31:27;-2.30;99.90
15749;DHT22;7976;52.526;13.326;2023-12-04T05:33:54;-2.30;99.90
15749;DHT22;7976;52.526;13.326;2023-12-04T05:36:21;-2.30;99.90
15749;DHT22;7976;52.526;13.326;2023-12-04T05:38:48;-2.30;99.90
15749;DHT22;7976;52.526;13.326;2023-12-04T05:41:14;-2.30;99.90
15749;DHT22;7976;52.526;13.326;2023-12-04T05:43:41;-2.30;99.90
15749;DHT22;7976;52.526;13.326;2023-12-04T05:46:08;-2.30;99.90
15749;DHT22;7976;52.526;13.326;2023-12-04T05:48:36;-2.20;99.90
15749;DHT22;7976;52.526;13.326;2023-12-04T05:51:04;-2.30;99.90
15749;DHT22;7976;52.526;13.326;2023-12-04T05:53:30;-2.20;99.90
15749;DHT22;7976;52.526;13.326;2023-12-04T05:55:56;-2.20;99.90
15749;DHT22;7976;52.526;13.326;2023-12-04T05:58:23;-2.20;99.90
15749;DHT22;7976;52.526;13.326;2023-12-04T06:00:50;-2.10;99.90
15749;DHT22;7976;52.526;13.326;2023-12-04T06:03:17;-2.10;99.90
15749;DHT22;7976;52.526;13.326;2023-12-04T06:05:45;-2.10;99.90
15749;DHT22;7976;52.526;13.326;2023-12-04T06:08:12;-2.00;99.90
15749;DHT22;7976;52.526;13.326;2023-12-04T06:10:39;-2.00;99.90
15749;DHT22;7976;52.526;13.326;2023-12-04T06:13:06;-2.00;99.90
15749;DHT22;7976;52.526;13.326;2023-12-04T06:15:33;-2.00;99.90
15749;DHT22;7976;52.526;13.326;2023-12-04T06:18:00;-2.00;99.90
15749;DHT22;7976;52.526;13.326;2023-12-04T06:20:26;-2.00;99.90
15749;DHT22;7976;52.526;13.326;2023-12-04T06:22:55;-2.00;99.90
15749;DHT22;7976;52.526;13.326;2023-12-04T06:25:23;-2.00;99.90
15749;DHT22;7976;52.526;13.326;2023-12-04T06:27:51;-2.00;99.90
15749;DHT22;7976;52.526;13.326;2023-12-04T06:30:19;-2.00;99.90
15749;DHT22;7976;52.526;13.326;2023-12-04T06:32:47;-2.00;99.90
15749;DHT22;7976;52.526;13.326;2023-12-04T06:35:15;-2.00;99.90
15749;DHT22;7976;52.526;13.326;2023-12-04T06:37:43;-2.00;99.90
15749;DHT22;7976;52.526;13.326;2023-12-04T06:40:13;-2.00;99.90
15749;DHT22;7976;52.526;13.326;2023-12-04T06:42:41;-2.00;99.90
15749;DHT22;7976;52.526;13.326;2023-12-04T06:45:09;-2.00;99.90
15749;DHT22;7976;52.526;13.326;2023-12-04T06:47:37;-2.00;99.90
15749;DHT22;7976;52.526;13.326;2023-12-04T06:50:07;-2.00;99.90
15749;DHT22;7976;52.526;13.326;2023-12-04T06:52:34;-2.00;99.90
15749;DHT22;7976;52.526;13.326;2023-12-04T06:55:01;-1.90;99.90
15749;DHT22;7976;52.526;13.326;2023-12-04T06:57:29;-2.00;99.90
15749;DHT22;7976;52.526;13.326;2023-12-04T06:59:56;-1.90;99.90
15749;DHT22;7976;52.526;13.326;2023-12-04T07:02:23;-1.90;99.90
15749;DHT22;7976;52.526;13.326;2023-12-04T07:04:50;-1.90;99.90
15749;DHT22;7976;52.526;13.326;2023-12-04T07:07:16;-1.80;99.90
15749;DHT22;7976;52.526;13.326;2023-12-04T07:09:43;-1.80;99.90
15749;DHT22;7976;52.526;13.326;2023-12-04T07:12:10;-1.80;99.90
15749;DHT22;7976;52.526;13.326;2023-12-04T07:14:38;-1.80;99.90
15749;DHT22;7976;52.526;13.326;2023-12-04T07:17:05;-1.80;99.90
15749;DHT22;7976;52.526;13.326;2023-12-04T07:19:32;-1.70;99.90
15749;DHT22;7976;52.526;13.326;2023-12-04T07:21:59;-1.70;99.90
15749;DHT22;7976;52.526;13.326;2023-12-04T07:24:25;-1.60;99.90
15749;DHT22;7976;52.526;13.326;2023-12-04T07:26:52;-1.60;99.90
15749;DHT22;7976;52.526;13.326;2023-12-04T07:29:19;-1.60;99.90
15749;DHT22;7976;52.526;13.326;2023-12-04T07:31:47;-1.60;99.90
15749;DHT22;7976;52.526;13.326;2023-12-04T07:34:14;-1.50;99.90
15749;DHT22;7976;52.526;13.326;2023-12-04T07:36:41;-1.40;99.90
15749;DHT22;7976;52.526;13.326;2023-12-04T07:39:09;-1.40;99.90
15749;DHT22;7976;52.526;13.326;2023-12-04T07:41:36;-1.30;99.90
15749;DHT22;7976;52.526;13.326;2023-12-04T07:44:03;-1.30;99.90
15749;DHT22;7976;52.526;13.326;2023-12-04T07:46:31;-1.20;99.90
15749;DHT22;7976;52.526;13.326;2023-12-04T07:48:59;-1.20;99.90
15749;DHT22;7976;52.526;13.326;2023-12-04T07:51:25;-1.20;99.90
15749;DHT22;7976;52.526;13.326;2023-12-04T07:53:53;-1.10;99.90
15749;DHT22;7976;52.526;13.326;2023-12-04T07:56:19;-1.10;99.90
15749;DHT22;7976;52.526;13.326;2023-12-04T07:58:46;-1.10;99.90
15749;DHT22;7976;52.526;13.326;2023-12-04T08:01:14;-1.10;99.90
15749;DHT22;7976;52.526;13.326;2023-12-04T08:03:41;-1.00;99.90
15749;DHT22;7976;52.526;13.326;2023-12-04T08:06:09;-1.00;99.90
15749;DHT22;7976;52.526;13.326;2023-12-04T08:08:37;-1.00;99.90
15749;DHT22;7976;52.526;13.326;2023-12-04T08:11:04;-0.90;99.90
15749;DHT22;7976;52.526;13.326;2023-12-04T08:13:31;-0.90;99.90
15749;DHT22;7976;52.526;13.326;2023-12-04T08:15:57;-0.90;99.90
15749;DHT22;7976;52.526;13.326;2023-12-04T08:18:26;-0.80;99.90
15749;DHT22;7976;52.526;13.326;2023-12-04T08:20:52;-0.80;99.90
15749;DHT22;7976;52.526;13.326;2023-12-04T08:23:21;-0.80;99.90
15749;DHT22;7976;52.526;13.326;2023-12-04T08:25:48;-0.70;99.90
15749;DHT22;7976;52.526;13.326;2023-12-04T08:28:15;-0.70;99.90
15749;DHT22;7976;52.526;13.326;2023-12-04T08:30:41;-0.70;99.90
15749;DHT22;7976;52.526;13.326;2023-12-04T08:33:08;-0.60;99.90
15749;DHT22;7976;52.526;13.326;2023-12-04T08:35:35;-0.60;99.90
15749;DHT22;7976;52.526;13.326;2023-12-04T08:38:02;-0.50;99.90
15749;DHT22;7976;52.526;13.326;2023-12-04T08:40:30;-0.50;99.90
15749;DHT22;7976;52.526;13.326;2023-12-04T08:42:57;-0.50;99.90
15749;DHT22;7976;52.526;13.326;2023-12-04T08:45:24;-0.50;99.90
15749;DHT22;7976;52.526;13.326;2023-12-04T08:47:51;-0.50;99.90
15749;DHT22;7976;52.526;13.326;2023-12-04T08:50:18;-0.40;99.90
15749;DHT22;7976;52.526;13.326;2023-12-04T08:52:45;-0.30;99.90
15749;DHT22;7976;52.526;13.326;2023-12-04T08:55:12;-0.30;99.90
15749;DHT22;7976;52.526;13.326;2023-12-04T08:57:40;-0.20;99.90
15749;DHT22;7976;52.526;13.326;2023-12-04T09:00:08;-0.20;99.90
15749;DHT22;7976;52.526;13.326;2023-12-04T09:02:35;-0.20;99.90
15749;DHT22;7976;52.526;13.326;2023-12-04T09:05:01;-0.20;99.90
15749;DHT22;7976;52.526;13.326;2023-12-04T09:07:29;-0.20;99.90
15749;DHT22;7976;52.526;13.326;2023-12-04T09:09:56;-0.20;99.90
15749;DHT22;7976;52.526;13.326;2023-12-04T09:12:23;-0.20;99.90
15749;DHT22;7976;52.526;13.326;2023-12-04T09:14:51;-0.20;99.90
15749;DHT22;7976;52.526;13.326;2023-12-04T09:17:18;-0.20;99.90
15749;DHT22;7976;52.526;13.326;2023-12-04T09:19:46;-0.10;99.90
15749;DHT22;7976;52.526;13.326;2023-12-04T09:22:12;-0.10;99.90
15749;DHT22;7976;52.526;13.326;2023-12-04T09:24:39;-0.10;99.90
15749;DHT22;7976;52.526;13.326;2023-12-04T09:27:06;-0.10;99.90
15749;DHT22;7976;52.526;13.326;2023-12-04T09:29:34;-0.10;99.90
15749;DHT22;7976;52.526;13.326;2023-12-04T09:32:02;-0.10;99.90
15749;DHT22;7976;52.526;13.326;2023-12-04T09:34:29;-0.10;99.90
15749;DHT22;7976;52.526;13.326;2023-12-04T09:36:56;-0.10;99.90
15749;DHT22;7976;52.526;13.326;2023-12-04T09:39:23;-0.10;99.90
15749;DHT22;7976;52.526;13.326;2023-12-04T09:41:50;0.00;99.90
15749;DHT22;7976;52.526;13.326;2023-12-04T09:44:17;0.00;99.90
15749;DHT22;7976;52.526;13.326;2023-12-04T09:46:46;0.00;99.90
15749;DHT22;7976;52.526;13.326;2023-12-04T09:49:17;0.10;99.90
15749;DHT22;7976;52.526;13.326;2023-12-04T09:51:44;0.10;99.90
15749;DHT22;7976;52.526;13.326;2023-12-04T09:54:12;0.10;99.90
15749;DHT22;7976;52.526;13.326;2023-12-04T09:56:43;0.10;99.90
15749;DHT22;7976;52.526;13.326;2023-12-04T09:59:13;0.10;99.90
15749;DHT22;7976;52.526;13.326;2023-12-04T10:01:43;0.10;99.90
15749;DHT22;7976;52.526;13.326;2023-12-04T10:04:13;0.10;99.90
15749;DHT22;7976;52.526;13.326;2023-12-04T10:06:43;0.10;99.90
15749;DHT22;7976;52.526;13.326;2023-12-04T10:09:12;0.20;99.90
15749;DHT22;7976;52.526;13.326;2023-12-04T10:11:40;0.20;99.90
15749;DHT22;7976;52.526;13.326;2023-12-04T10:14:14;0.20;99.90
15749;DHT22;7976;52.526;13.326;2023-12-04T10:16:42;0.20;99.90
15749;DHT22;7976;52.526;13.326;2023-12-04T10:19:14;0.30;99.90
15749;DHT22;7976;52.526;13.326;2023-12-04T10:21:46;0.30;99.90
15749;DHT22;7976;52.526;13.326;2023-12-04T10:24:28;0.30;99.90
15749;DHT22;7976;52.526;13.326;2023-12-04T10:26:57;0.40;99.90
15749;DHT22;7976;52.526;13.326;2023-12-04T10:29:27;0.40;99.90
15749;DHT22;7976;52.526;13.326;2023-12-04T10:31:58;0.40;99.90
15749;DHT22;7976;52.526;13.326;2023-12-04T10:34:26;0.50;99.90
15749;DHT22;7976;52.526;13.326;2023-12-04T10:36:55;0.50;99.90
15749;DHT22;7976;52.526;13.326;2023-12-04T10:39:23;0.60;99.90
15749;DHT22;7976;52.526;13.326;2023-12-04T10:42:01;0.60;99.90
15749;DHT22;7976;52.526;13.326;2023-12-04T10:44:30;0.60;99.90
15749;DHT22;7976;52.526;13.326;2023-12-04T10:46:59;0.60;99.90
15749;DHT22;7976;52.526;13.326;2023-12-04T10:49:27;0.70;99.90
15749;DHT22;7976;52.526;13.326;2023-12-04T10:51:59;0.60;99.90
15749;DHT22;7976;52.526;13.326;2023-12-04T10:54:27;0.70;99.90
15749;DHT22;7976;52.526;13.326;2023-12-04T10:56:58;0.70;99.90
15749;DHT22;7976;52.526;13.326;2023-12-04T10:59:36;0.70;99.90
15749;DHT22;7976;52.526;13.326;2023-12-04T11:02:05;0.70;99.90
15749;DHT22;7976;52.526;13.326;2023-12-04T11:04:36;0.60;99.90
15749;DHT22;7976;52.526;13.326;2023-12-04T11:07:07;0.60;99.90
15749;DHT22;7976;52.526;13.326;2023-12-04T11:09:37;0.60;99.90
15749;DHT22;7976;52.526;13.326;2023-12-04T11:12:08;0.60;99.90
15749;DHT22;7976;52.526;13.326;2023-12-04T11:14:44;0.60;99.90
15749;DHT22;7976;52.526;13.326;2023-12-04T11:17:19;0.60;99.90
15749;DHT22;7976;52.526;13.326;2023-12-04T11:19:52;0.60;99.90
15749;DHT22;7976;52.526;13.326;2023-12-04T11:22:25;0.50;99.90
15749;DHT22;7976;52.526;13.326;2023-12-04T11:24:52;0.50;99.90
15749;DHT22;7976;52.526;13.326;2023-12-04T11:27:21;0.50;99.90
15749;DHT22;7976;52.526;13.326;2023-12-04T11:29:50;0.60;99.90
15749;DHT22;7976;52.526;13.326;2023-12-04T11:32:17;0.60;99.90
15749;DHT22;7976;52.526;13.326;2023-12-04T11:34:49;0.60;99.90
15749;DHT22;7976;52.526;13.326;2023-12-04T11:37:17;0.60;99.90
15749;DHT22;7976;52.526;13.326;2023-12-04T11:39:49;0.50;99.90
15749;DHT22;7976;52.526;13.326;2023-12-04T11:42:19;0.50;99.90
15749;DHT22;7976;52.526;13.326;2023-12-04T11:44:48;0.50;99.90
15749;DHT22;7976;52.526;13.326;2023-12-04T11:47:16;0.50;99.90
15749;DHT22;7976;52.526;13.326;2023-12-04T11:49:43;0.50;99.90
15749;DHT22;7976;52.526;13.326;2023-12-04T11:52:10;0.50;99.90
15749;DHT22;7976;52.526;13.326;2023-12-04T11:54:57;0.60;99.90
15749;DHT22;7976;52.526;13.326;2023-12-04T11:57:32;0.60;99.90
15749;DHT22;7976;52.526;13.326;2023-12-04T12:00:10;0.60;99.90
15749;DHT22;7976;52.526;13.326;2023-12-04T12:02:48;0.70;99.90
15749;DHT22;7976;52.526;13.326;2023-12-04T12:05:28;0.70;99.90
15749;DHT22;7976;52.526;13.326;2023-12-04T12:08:00;0.80;99.90
15749;DHT22;7976;52.526;13.326;2023-12-04T12:10:30;0.80;99.90
15749;DHT22;7976;52.526;13.326;2023-12-04T12:12:58;0.80;99.90
15749;DHT22;7976;52.526;13.326;2023-12-04T12:15:25;0.80;99.90
15749;DHT22;7976;52.526;13.326;2023-12-04T12:17:52;0.80;99.90
15749;DHT22;7976;52.526;13.326;2023-12-04T12:20:20;0.80;99.90
15749;DHT22;7976;52.526;13.326;2023-12-04T12:22:48;0.80;99.90
15749;DHT22;7976;52.526;13.326;2023-12-04T12:25:16;0.80;99.90
15749;DHT22;7976;52.526;13.326;2023-12-04T12:27:46;0.80;99.90
15749;DHT22;7976;52.526;13.326;2023-12-04T12:30:13;0.80;99.90
15749;DHT22;7976;52.526;13.326;2023-12-04T12:32:40;0.80;99.90
15749;DHT22;7976;52.526;13.326;2023-12-04T12:35:07;0.80;99.90
15749;DHT22;7976;52.526;13.326;2023-12-04T12:37:35;0.80;99.90
15749;DHT22;7976;52.526;13.326;2023-12-04T12:40:04;0.80;99.90
15749;DHT22;7976;52.526;13.326;2023-12-04T12:42:35;0.80;99.90
15749;DHT22;7976;52.526;13.326;2023-12-04T12:45:06;0.80;99.90
15749;DHT22;7976;52.526;13.326;2023-12-04T12:47:39;0.80;99.90
15749;DHT22;7976;52.526;13.326;2023-12-04T12:50:08;0.80;99.90
15749;DHT22;7976;52.526;13.326;2023-12-04T12:52:39;0.80;99.90
15749;DHT22;7976;52.526;13.326;2023-12-04T12:55:07;0.90;99.90
15749;DHT22;7976;52.526;13.326;2023-12-04T12:57:35;0.90;99.90
15749;DHT22;7976;52.526;13.326;2023-12-04T13:00:02;0.80;99.90
15749;DHT22;7976;52.526;13.326;2023-12-04T13:02:35;0.80;99.90
15749;DHT22;7976;52.526;13.326;2023-12-04T13:05:03;0.80;99.90
15749;DHT22;7976;52.526;13.326;2023-12-04T13:07:31;0.80;99.90
15749;DHT22;7976;52.526;13.326;2023-12-04T13:09:58;0.80;99.90
15749;DHT22;7976;52.526;13.326;2023-12-04T13:12:25;0.80;99.90
15749;DHT22;7976;52.526;13.326;2023-12-04T13:14:52;0.80;99.90
15749;DHT22;7976;52.526;13.326;2023-12-04T13:17:19;0.80;99.90
15749;DHT22;7976;52.526;13.326;2023-12-04T13:19:47;0.80;99.90
15749;DHT22;7976;52.526;13.326;2023-12-04T13:22:14;0.70;99.90
15749;DHT22;7976;52.526;13.326;2023-12-04T13:24:41;0.70;99.90
15749;DHT22;7976;52.526;13.326;2023-12-04T13:27:08;0.60;99.90
15749;DHT22;7976;52.526;13.326;2023-12-04T13:29:34;0.70;99.90
15749;DHT22;7976;52.526;13.326;2023-12-04T13:32:02;0.70;99.90
15749;DHT22;7976;52.526;13.326;2023-12-04T13:34:30;0.60;99.90
15749;DHT22;7976;52.526;13.326;2023-12-04T13:36:59;0.60;99.90
15749;DHT22;7976;52.526;13.326;2023-12-04T13:39:26;0.60;99.90
15749;DHT22;7976;52.526;13.326;2023-12-04T13:42:13;0.60;99.90
15749;DHT22;7976;52.526;13.326;2023-12-04T13:45:00;0.60;99.90
15749;DHT22;7976;52.526;13.326;2023-12-04T13:47:29;0.60;99.90
15749;DHT22;7976;52.526;13.326;2023-12-04T13:49:56;0.60;99.90
15749;DHT22;7976;52.526;13.326;2023-12-04T13:52:25;0.60;99.90
15749;DHT22;7976;52.526;13.326;2023-12-04T13:54:58;0.60;99.90
15749;DHT22;7976;52.526;13.326;2023-12-04T13:57:26;0.60;99.90
15749;DHT22;7976;52.526;13.326;2023-12-04T13:59:58;0.50;99.90
15749;DHT22;7976;52.526;13.326;2023-12-04T14:02:25;0.50;99.90
15749;DHT22;7976;52.526;13.326;2023-12-04T14:04:52;0.50;99.90
15749;DHT22;7976;52.526;13.326;2023-12-04T14:07:19;0.50;99.90
15749;DHT22;7976;52.526;13.326;2023-12-04T14:09:47;0.50;99.90
15749;DHT22;7976;52.526;13.326;2023-12-04T14:12:14;0.50;99.90
15749;DHT22;7976;52.526;13.326;2023-12-04T14:14:42;0.40;99.90
15749;DHT22;7976;52.526;13.326;2023-12-04T14:17:08;0.40;99.90
15749;DHT22;7976;52.526;13.326;2023-12-04T14:19:37;0.40;99.90
15749;DHT22;7976;52.526;13.326;2023-12-04T14:22:05;0.40;99.90
15749;DHT22;7976;52.526;13.326;2023-12-04T14:24:32;0.40;99.90
15749;DHT22;7976;52.526;13.326;2023-12-04T14:27:02;0.30;99.90
15749;DHT22;7976;52.526;13.326;2023-12-04T14:29:30;0.30;99.90
15749;DHT22;7976;52.526;13.326;2023-12-04T14:31:58;0.40;99.90
15749;DHT22;7976;52.526;13.326;2023-12-04T14:34:24;0.30;99.90
15749;DHT22;7976;52.526;13.326;2023-12-04T14:36:51;0.30;99.90
15749;DHT22;7976;52.526;13.326;2023-12-04T14:39:19;0.30;99.90
15749;DHT22;7976;52.526;13.326;2023-12-04T14:41:46;0.30;99.90
15749;DHT22;7976;52.526;13.326;2023-12-04T14:44:14;0.30;99.90
15749;DHT22;7976;52.526;13.326;2023-12-04T14:46:41;0.30;99.90
15749;DHT22;7976;52.526;13.326;2023-12-04T14:49:08;0.30;99.90
15749;DHT22;7976;52.526;13.326;2023-12-04T14:51:35;0.30;99.90
15749;DHT22;7976;52.526;13.326;2023-12-04T14:54:02;0.30;99.90
15749;DHT22;7976;52.526;13.326;2023-12-04T14:56:46;0.30;99.90
15749;DHT22;7976;52.526;13.326;2023-12-04T14:59:46;0.30;99.90
15749;DHT22;7976;52.526;13.326;2023-12-04T15:02:32;0.30;99.90
15749;DHT22;7976;52.526;13.326;2023-12-04T15:05:21;0.20;99.90
15749;DHT22;7976;52.526;13.326;2023-12-04T15:08:21;0.20;99.90
15749;DHT22;7976;52.526;13.326;2023-12-04T15:11:08;0.20;99.90
15749;DHT22;7976;52.526;13.326;2023-12-04T15:13:55;0.20;99.90
15749;DHT22;7976;52.526;13.326;2023-12-04T15:16:31;0.20;99.90
15749;DHT22;7976;52.526;13.326;2023-12-04T15:19:01;0.20;99.90
15749;DHT22;7976;52.526;13.326;2023-12-04T15:21:54;0.20;99.90
15749;DHT22;7976;52.526;13.326;2023-12-04T15:24:20;0.20;99.90
15749;DHT22;7976;52.526;13.326;2023-12-04T15:26:47;0.30;99.90
15749;DHT22;7976;52.526;13.326;2023-12-04T15:29:13;0.30;99.90
15749;DHT22;7976;52.526;13.326;2023-12-04T15:31:44;0.20;99.90
15749;DHT22;7976;52.526;13.326;2023-12-04T15:34:11;0.30;99.90
15749;DHT22;7976;52.526;13.326;2023-12-04T15:36:38;0.20;99.90
15749;DHT22;7976;52.526;13.326;2023-12-04T15:39:04;0.20;99.90
15749;DHT22;7976;52.526;13.326;2023-12-04T15:41:31;0.30;99.90
15749;DHT22;7976;52.526;13.326;2023-12-04T15:43:57;0.30;99.90
15749;DHT22;7976;52.526;13.326;2023-12-04T15:46:24;0.30;99.90